Time;durP1;ratioP1;P1;durP2;ratioP2;P2;SDS_P1;SDS_P2;PMS_P1;PMS_P2;Temp;Humidity;BMP_temperature;BMP_pressure;BME280_temperature;BME280_humidity;BME280_pressure;Samples;Min_cycle;Max_cycle;Signal;HPM_P1;HPM_P2
2022/03/20 00:00:08;;;;;;;34.28;24.27;;;;;;;6.46;73.06;100425.78;5013614;28;20207;-85
2022/03/20 00:02:35;;;;;;;29.00;21.77;;;;;;;6.40;72.92;100425.97;5013369;28;20597;-85
2022/03/20 00:05:04;;;;;;;28.63;22.10;;;;;;;6.07;74.61;100427.75;5012927;28;20227;-85
2022/03/20 00:07:31;;;;;;;32.45;22.75;;;;;;;6.28;74.26;100428.97;5013738;28;20590;-85
2022/03/20 00:09:58;;;;;;;27.05;20.23;;;;;;;6.34;73.13;100418.13;5013642;28;20608;-85
2022/03/20 00:12:25;;;;;;;27.45;21.70;;;;;;;6.37;73.02;100404.63;5013272;28;20528;-85
2022/03/20 00:14:51;;;;;;;30.95;21.90;;;;;;;6.35;72.37;100410.97;5013559;28;20550;-84
2022/03/20 00:17:20;;;;;;;31.08;21.55;;;;;;;6.27;73.08;100403.16;5013439;28;20660;-84
2022/03/20 00:19:47;;;;;;;28.75;21.60;;;;;;;6.29;73.04;100393.28;5013483;28;20618;-85
2022/03/20 00:22:15;;;;;;;32.55;21.98;;;;;;;6.22;73.47;100399.75;5013289;28;20203;-85
2022/03/20 00:24:43;;;;;;;29.02;21.58;;;;;;;6.21;73.05;100395.28;5013334;28;20182;-85
2022/03/20 00:27:12;;;;;;;30.17;21.75;;;;;;;6.30;72.49;100388.81;5013268;28;20193;-85
2022/03/20 00:29:40;;;;;;;30.25;22.55;;;;;;;6.27;72.44;100387.13;5013125;28;20321;-85
2022/03/20 00:32:08;;;;;;;31.00;22.17;;;;;;;6.33;72.23;100388.72;5013602;28;20187;-84
2022/03/20 00:34:35;;;;;;;28.67;22.15;;;;;;;6.31;71.86;100380.75;5013082;28;20292;-85
2022/03/20 00:37:02;;;;;;;31.73;21.42;;;;;;;6.21;72.77;100371.22;5013196;28;20195;-85
2022/03/20 00:39:30;;;;;;;30.75;21.70;;;;;;;6.19;72.82;100373.06;5013082;28;20640;-85
2022/03/20 00:41:57;;;;;;;30.77;20.77;;;;;;;6.26;72.60;100364.84;5012056;28;20203;-85
2022/03/20 00:44:23;;;;;;;29.42;21.65;;;;;;;6.20;72.74;100369.50;5012431;28;20293;-84
2022/03/20 00:46:50;;;;;;;26.23;20.90;;;;;;;6.37;71.76;100364.50;5012726;28;20193;-85
2022/03/20 00:49:17;;;;;;;30.45;21.90;;;;;;;6.23;72.50;100359.56;5012896;28;20213;-84
2022/03/20 00:51:44;;;;;;;28.45;21.70;;;;;;;6.32;71.92;100357.56;5013066;28;20214;-84
2022/03/20 00:54:10;;;;;;;26.02;20.63;;;;;;;6.31;72.16;100361.13;5012874;28;20202;-85
2022/03/20 00:56:39;;;;;;;31.00;21.42;;;;;;;6.24;72.56;100368.47;5012976;28;20198;-86
2022/03/20 00:59:05;;;;;;;30.05;21.30;;;;;;;6.41;70.69;100358.16;5012343;28;20182;-84
2022/03/20 01:01:32;;;;;;;26.63;20.17;;;;;;;6.37;71.01;100355.63;5012361;28;20231;-85
2022/03/20 01:03:59;;;;;;;31.30;21.48;;;;;;;6.36;70.79;100353.88;5011724;28;20207;-85
2022/03/20 01:06:26;;;;;;;30.50;21.88;;;;;;;6.33;71.42;100349.50;5012471;28;20186;-85
2022/03/20 01:08:52;;;;;;;28.55;21.67;;;;;;;6.29;71.19;100342.47;5012312;28;20202;-85
2022/03/20 01:11:19;;;;;;;25.73;20.90;;;;;;;6.24;71.93;100344.38;5012464;28;20226;-85
2022/03/20 01:13:47;;;;;;;30.33;22.30;;;;;;;6.32;70.93;100339.69;5011581;28;20581;-85
2022/03/20 01:16:14;;;;;;;31.40;21.52;;;;;;;6.34;70.75;100331.66;5012228;28;20637;-85
2022/03/20 01:18:40;;;;;;;27.67;20.40;;;;;;;6.30;70.98;100317.47;5012444;28;20193;-85
2022/03/20 01:21:07;;;;;;;29.92;19.45;;;;;;;6.28;70.34;100318.44;5012490;28;20229;-85
2022/03/20 01:23:34;;;;;;;28.60;21.73;;;;;;;6.25;70.71;100314.06;5012416;28;20676;-85
2022/03/20 01:26:00;;;;;;;25.10;20.55;;;;;;;6.37;70.05;100319.03;5012463;28;20187;-85
2022/03/20 01:28:27;;;;;;;27.60;20.35;;;;;;;6.40;69.40;100316.28;5012420;28;20197;-85
2022/03/20 01:30:58;;;;;;;27.83;20.70;;;;;;;6.38;69.65;100309.25;5012337;28;20227;-85
2022/03/20 01:33:24;;;;;;;28.73;19.55;;;;;;;6.14;70.29;100305.47;5012093;28;20630;-85
2022/03/20 01:35:52;;;;;;;26.75;20.88;;;;;;;6.20;70.10;100310.66;5012242;28;20598;-85
2022/03/20 01:38:20;;;;;;;26.45;20.55;;;;;;;6.16;69.99;100306.31;5012263;28;20206;-85
2022/03/20 01:40:48;;;;;;;30.30;22.00;;;;;;;6.28;69.40;100303.25;5012268;28;20210;-85
2022/03/20 01:43:15;;;;;;;29.05;20.63;;;;;;;6.09;70.29;100302.06;5012147;28;20538;-85
2022/03/20 01:45:42;;;;;;;27.15;20.17;;;;;;;6.08;70.84;100302.97;5012163;28;20203;-85
2022/03/20 01:48:10;;;;;;;29.92;20.17;;;;;;;6.08;70.67;100302.97;5012106;28;20681;-85
2022/03/20 01:50:38;;;;;;;25.80;19.95;;;;;;;6.07;70.55;100296.75;5012043;28;20213;-84
2022/03/20 01:53:06;;;;;;;29.75;19.52;;;;;;;5.94;70.86;100292.63;5011808;28;20195;-84
2022/03/20 01:55:32;;;;;;;29.48;21.73;;;;;;;6.01;70.16;100280.88;5011862;28;20186;-85
2022/03/20 01:57:59;;;;;;;29.15;20.85;;;;;;;6.07;69.88;100278.03;5011842;28;20560;-85
2022/03/20 02:00:27;;;;;;;29.65;20.88;;;;;;;5.95;70.23;100276.59;5011789;28;20301;-85
2022/03/20 02:02:55;;;;;;;28.17;20.42;;;;;;;5.99;70.50;100277.34;5011992;28;20186;-85
2022/03/20 02:05:23;;;;;;;27.02;19.48;;;;;;;6.04;69.69;100270.97;5011600;28;20207;-84
2022/03/20 02:07:50;;;;;;;26.50;21.05;;;;;;;6.04;69.54;100273.66;5011545;28;20189;-84
2022/03/20 02:10:17;;;;;;;30.70;21.45;;;;;;;6.13;69.15;100268.94;5011848;28;20586;-84
2022/03/20 02:12:43;;;;;;;28.83;20.85;;;;;;;6.12;68.94;100261.84;5011466;28;20209;-84
2022/03/20 02:15:13;;;;;;;30.80;21.83;;;;;;;6.13;69.26;100255.56;5011863;28;20197;-84
2022/03/20 02:17:42;;;;;;;29.02;21.50;;;;;;;6.14;68.06;100266.22;5011773;28;20194;-84
2022/03/20 02:20:10;;;;;;;25.33;19.70;;;;;;;6.03;67.92;100255.84;5011721;28;20199;-84
2022/03/20 02:22:40;;;;;;;29.40;20.30;;;;;;;5.98;68.46;100248.88;5004301;28;20199;-84
2022/03/20 02:25:10;;;;;;;26.13;19.63;;;;;;;6.03;67.77;100242.47;4992509;28;20548;-85
2022/03/20 02:27:39;;;;;;;27.98;20.23;;;;;;;6.12;67.24;100246.69;4994838;28;20691;-86
2022/03/20 02:30:13;;;;;;;29.58;21.38;;;;;;;6.11;67.07;100254.78;4995930;28;20203;-86
2022/03/20 02:32:41;;;;;;;25.65;19.75;;;;;;;6.24;66.24;100246.34;4995639;28;20217;-85
2022/03/20 02:35:14;;;;;;;27.17;20.73;;;;;;;5.89;67.97;100252.66;4995821;28;20265;-86
2022/03/20 02:37:44;;;;;;;26.45;19.67;;;;;;;5.96;67.84;100237.38;4995801;28;20183;-86
2022/03/20 02:40:12;;;;;;;28.30;21.13;;;;;;;6.10;66.93;100235.16;4995882;28;20274;-86
2022/03/20 02:42:41;;;;;;;26.25;19.80;;;;;;;6.05;67.12;100239.78;4995938;28;20680;-86
2022/03/20 02:45:10;;;;;;;28.25;20.48;;;;;;;6.05;66.94;100235.28;4994661;28;20290;-86
2022/03/20 02:47:38;;;;;;;26.60;19.67;;;;;;;6.01;67.02;100236.28;4995857;28;20677;-86
2022/03/20 02:50:08;;;;;;;26.77;20.15;;;;;;;5.91;66.96;100234.78;4995588;28;20184;-86
2022/03/20 02:52:47;;;;;;;27.48;20.50;;;;;;;6.01;66.81;100227.41;4995226;28;20219;-86
2022/03/20 02:55:14;;;;;;;27.13;20.48;;;;;;;6.17;65.36;100225.16;4995686;28;20591;-86
2022/03/20 02:57:41;;;;;;;28.55;20.15;;;;;;;6.18;65.22;100229.59;4995945;28;20536;-86
2022/03/20 03:00:10;;;;;;;22.75;18.67;;;;;;;6.12;65.70;100222.63;4995508;28;20192;-85
2022/03/20 03:02:43;;;;;;;27.02;19.75;;;;;;;6.07;65.42;100234.38;4995778;28;20555;-86
2022/03/20 03:05:11;;;;;;;27.60;19.05;;;;;;;6.19;64.55;100234.00;4995465;28;20326;-86
2022/03/20 03:13:08;;;;;;;25.38;20.10;;;;;;;6.43;63.22;100233.25;4995336;28;20728;-86
2022/03/20 03:15:33;;;;;;;26.65;19.48;;;;;;;6.34;63.03;100225.53;4995184;28;20211;-86
2022/03/20 03:18:00;;;;;;;22.53;17.33;;;;;;;6.45;62.18;100234.09;4995224;28;20529;-85
2022/03/20 03:20:27;;;;;;;30.33;21.02;;;;;;;5.98;63.88;100233.72;4995430;28;20196;-86
2022/03/20 03:22:54;;;;;;;23.90;19.40;;;;;;;5.89;64.78;100223.25;4994970;28;20214;-85
2022/03/20 03:25:23;;;;;;;24.40;19.45;;;;;;;5.88;65.13;100231.31;4995319;28;21014;-85
2022/03/20 03:27:50;;;;;;;25.35;19.15;;;;;;;6.03;64.52;100234.44;4994658;28;20184;-85
2022/03/20 03:30:16;;;;;;;24.20;19.55;;;;;;;6.12;63.90;100227.09;4994884;28;20209;-85
2022/03/20 03:32:43;;;;;;;27.60;19.27;;;;;;;6.20;63.19;100225.06;4994647;28;20211;-85
2022/03/20 03:37:56;;;;;;;23.10;19.00;;;;;;;6.31;61.94;100228.31;4994411;28;20692;-85
2022/03/20 03:40:24;;;;;;;25.35;18.77;;;;;;;6.23;62.26;100238.34;4994546;28;20191;-86
2022/03/20 03:42:50;;;;;;;26.33;18.83;;;;;;;6.17;62.31;100230.50;4995089;28;20198;-86
2022/03/20 03:45:17;;;;;;;26.63;19.85;;;;;;;6.15;60.97;100224.31;4994785;28;20208;-86
2022/03/20 03:47:44;;;;;;;26.17;20.15;;;;;;;6.36;61.16;100228.16;4994555;28;20191;-86
2022/03/20 03:50:11;;;;;;;24.83;19.05;;;;;;;6.33;60.94;100233.59;4994965;28;20222;-86
2022/03/20 03:52:38;;;;;;;26.20;18.73;;;;;;;6.32;60.71;100229.16;4994598;28;20848;-86
2022/03/20 03:55:06;;;;;;;26.20;20.02;;;;;;;6.36;60.62;100225.50;4994733;28;20793;-85
2022/03/20 03:57:34;;;;;;;29.65;21.52;;;;;;;6.44;59.94;100218.97;4994771;28;20642;-85
2022/03/20 04:00:01;;;;;;;25.95;20.02;;;;;;;6.39;59.54;100220.03;4994216;28;20213;-85
2022/03/20 04:02:27;;;;;;;26.13;21.15;;;;;;;6.20;60.42;100222.41;4994113;28;20191;-85
2022/03/20 04:04:54;;;;;;;27.55;20.00;;;;;;;6.08;61.48;100225.44;4994212;28;20549;-85
2022/03/20 04:07:21;;;;;;;24.35;18.92;;;;;;;6.21;60.59;100221.47;4994212;28;20199;-84
2022/03/20 04:09:49;;;;;;;25.85;19.25;;;;;;;6.05;60.96;100211.22;4994048;28;20635;-84
2022/03/20 04:12:15;;;;;;;23.08;19.27;;;;;;;6.13;60.88;100224.38;4994095;28;20757;-85
2022/03/20 04:14:43;;;;;;;24.08;18.80;;;;;;;5.97;61.14;100234.66;4993951;28;20198;-86
2022/03/20 04:17:10;;;;;;;23.05;17.30;;;;;;;5.83;61.57;100219.00;4993885;28;20195;-86
2022/03/20 04:19:37;;;;;;;24.10;19.23;;;;;;;5.84;62.12;100212.72;4994073;28;20215;-86
2022/03/20 04:22:04;;;;;;;24.65;20.35;;;;;;;5.67;62.87;100214.09;4994211;28;20642;-86
2022/03/20 04:24:32;;;;;;;28.20;19.83;;;;;;;5.79;62.44;100219.13;4993970;28;20229;-86
2022/03/20 04:26:58;;;;;;;24.42;18.90;;;;;;;5.66;63.19;100218.59;4994128;28;20668;-86
2022/03/20 04:29:27;;;;;;;24.52;19.25;;;;;;;5.69;62.93;100223.81;4993913;28;20191;-86
2022/03/20 04:31:55;;;;;;;25.65;20.27;;;;;;;5.74;62.74;100219.22;4993605;28;20265;-86
2022/03/20 04:34:22;;;;;;;24.98;19.35;;;;;;;5.81;62.12;100212.81;4993926;28;20188;-86
2022/03/20 04:36:50;;;;;;;23.45;18.70;;;;;;;5.92;61.53;100214.28;4993389;28;20214;-86
2022/03/20 04:39:17;;;;;;;28.83;21.75;;;;;;;5.88;61.68;100213.50;4994000;28;20184;-86
2022/03/20 04:41:46;;;;;;;29.90;19.77;;;;;;;5.98;61.47;100211.47;4993580;28;20536;-86
2022/03/20 04:44:12;;;;;;;29.67;19.10;;;;;;;6.06;61.10;100212.13;4993604;28;20218;-85
2022/03/20 04:46:39;;;;;;;24.65;19.15;;;;;;;5.60;62.60;100214.28;4993552;28;20197;-85
2022/03/20 05:00:05;;;;;;;33.95;19.67;;;;;;;5.66;62.49;100218.59;4992928;28;20562;-85
2022/03/20 05:02:31;;;;;;;25.88;18.33;;;;;;;5.58;62.61;100223.25;4993353;28;20187;-85
2022/03/20 05:04:59;;;;;;;28.10;19.73;;;;;;;5.68;62.52;100216.75;4993099;28;20194;-85
2022/03/20 05:07:26;;;;;;;23.92;18.40;;;;;;;5.67;61.98;100225.66;4993270;28;20210;-87
2022/03/20 05:15:20;;;;;;;23.33;18.95;;;;;;;6.03;60.06;100218.41;4992880;28;20187;-85
2022/03/20 05:17:47;;;;;;;25.13;19.52;;;;;;;6.12;59.32;100211.06;4992787;28;20191;-85
2022/03/20 05:20:16;;;;;;;22.90;17.30;;;;;;;6.07;59.22;100218.34;4992991;28;20192;-86
2022/03/20 05:22:42;;;;;;;28.00;19.27;;;;;;;6.08;59.69;100220.06;4992953;28;20199;-85
2022/03/20 05:25:10;;;;;;;24.67;18.85;;;;;;;6.11;59.38;100220.00;4992858;28;20270;-84
2022/03/20 05:27:37;;;;;;;23.98;18.20;;;;;;;6.16;59.49;100218.06;4992474;28;20226;-85
2022/03/20 05:30:07;;;;;;;24.08;19.42;;;;;;;6.06;59.28;100217.47;4992890;28;20203;-86
2022/03/20 05:32:35;;;;;;;26.10;19.67;;;;;;;5.95;59.54;100215.13;4992622;28;20208;-86
2022/03/20 05:35:04;;;;;;;22.95;18.80;;;;;;;5.87;59.49;100209.06;4992587;28;20184;-86
2022/03/20 05:37:32;;;;;;;35.53;21.10;;;;;;;5.95;59.52;100214.25;4992462;28;20207;-86
2022/03/20 05:39:59;;;;;;;23.10;17.95;;;;;;;5.85;59.80;100210.91;4992508;28;20192;-86
2022/03/20 05:42:25;;;;;;;26.90;19.98;;;;;;;5.85;59.98;100214.44;4992793;28;20538;-86
2022/03/20 05:44:52;;;;;;;25.40;19.15;;;;;;;5.92;59.89;100214.28;4992355;28;20203;-86
2022/03/20 05:47:19;;;;;;;23.25;18.75;;;;;;;5.92;59.66;100225.84;4992666;28;20195;-86
2022/03/20 05:49:46;;;;;;;29.58;20.30;;;;;;;6.09;58.92;100211.16;4992813;28;20294;-85
2022/03/20 05:52:13;;;;;;;28.80;20.17;;;;;;;5.94;59.76;100208.00;4993317;28;20277;-86
2022/03/20 05:54:41;;;;;;;30.25;19.98;;;;;;;6.02;59.34;100205.13;4992636;28;20188;-85
2022/03/20 05:59:53;;;;;;;25.55;20.58;;;;;;;5.70;60.52;100216.69;4992322;28;20202;-80
2022/03/20 06:02:20;;;;;;;26.80;19.35;;;;;;;5.64;60.59;100210.59;4995023;28;20226;-86
2022/03/20 06:04:47;;;;;;;27.63;19.77;;;;;;;5.75;60.55;100204.09;4996513;28;20207;-86
2022/03/20 06:07:14;;;;;;;23.45;17.63;;;;;;;5.64;61.14;100196.38;4996426;28;20193;-86
2022/03/20 06:09:42;;;;;;;27.30;20.40;;;;;;;5.65;61.09;100198.09;4996543;28;20183;-86
2022/03/20 06:12:09;;;;;;;27.98;20.20;;;;;;;5.64;60.53;100199.03;4996278;28;20567;-86
2022/03/20 06:14:36;;;;;;;28.20;20.10;;;;;;;5.68;60.86;100199.84;4996450;28;20191;-85
2022/03/20 06:17:05;;;;;;;26.83;19.10;;;;;;;5.75;60.38;100220.13;4996516;28;20627;-85
2022/03/20 06:19:31;;;;;;;23.00;19.38;;;;;;;5.71;60.91;100226.47;4995884;28;20208;-86
2022/03/20 06:21:59;;;;;;;26.80;19.60;;;;;;;5.70;60.44;100222.94;4996322;28;20186;-86
2022/03/20 06:24:25;;;;;;;28.38;20.50;;;;;;;5.58;61.08;100220.56;4996146;28;20226;-86
2022/03/20 06:26:53;;;;;;;29.27;19.35;;;;;;;5.71;61.09;100218.44;4996248;28;20650;-86
2022/03/20 06:29:20;;;;;;;26.70;19.70;;;;;;;5.67;60.91;100217.66;4996356;28;20194;-86
2022/03/20 06:31:49;;;;;;;26.13;19.27;;;;;;;5.70;61.15;100219.34;4995894;28;20219;-86
2022/03/20 06:34:15;;;;;;;23.90;19.38;;;;;;;5.73;60.58;100230.84;4995701;28;20214;-86
2022/03/20 06:36:42;;;;;;;27.80;21.55;;;;;;;6.06;59.42;100246.88;4996157;28;20187;-86
2022/03/20 06:39:09;;;;;;;32.85;19.65;;;;;;;6.17;58.43;100241.19;4996060;28;20282;-86
2022/03/20 06:41:36;;;;;;;24.63;20.42;;;;;;;6.06;58.78;100238.88;4995909;28;20203;-86
2022/03/20 06:44:05;;;;;;;24.25;18.73;;;;;;;6.03;59.42;100242.47;4996188;28;20222;-86
2022/03/20 06:46:33;;;;;;;27.92;20.65;;;;;;;6.17;58.78;100252.78;4996443;28;20585;-85
2022/03/20 06:49:00;;;;;;;28.48;21.80;;;;;;;6.59;57.21;100256.88;4996026;28;20188;-85
2022/03/20 06:51:26;;;;;;;27.02;18.80;;;;;;;6.55;56.86;100250.72;4995476;28;20645;-84
2022/03/20 06:53:53;;;;;;;24.75;18.70;;;;;;;6.59;57.50;100246.16;4995783;28;20626;-80
2022/03/20 06:56:19;;;;;;;27.23;21.55;;;;;;;6.64;57.06;100246.88;4994692;28;20206;-81
2022/03/20 06:58:46;;;;;;;27.33;19.77;;;;;;;6.95;56.06;100248.59;4995007;28;20210;-84
2022/03/20 07:01:14;;;;;;;26.30;20.33;;;;;;;6.84;56.01;100243.56;4995414;28;20238;-86
2022/03/20 07:03:41;;;;;;;26.33;20.70;;;;;;;6.95;55.91;100237.88;4995850;28;20179;-82
2022/03/20 07:06:07;;;;;;;27.55;21.02;;;;;;;7.00;55.81;100251.97;4995944;28;20184;-84
2022/03/20 07:08:34;;;;;;;26.50;21.52;;;;;;;7.23;54.99;100254.75;4995856;28;20203;-84
2022/03/20 07:11:01;;;;;;;25.90;20.30;;;;;;;7.31;54.62;100263.41;4995739;28;20191;-85
2022/03/20 07:16:15;;;;;;;29.08;20.60;;;;;;;7.31;54.93;100273.25;4995365;28;20195;-85
2022/03/20 07:18:42;;;;;;;28.60;21.75;;;;;;;7.30;55.10;100268.81;4996040;28;20315;-86
2022/03/20 07:21:09;;;;;;;29.77;21.77;;;;;;;7.34;55.52;100277.63;4994664;28;20210;-85
2022/03/20 07:23:36;;;;;;;27.63;21.10;;;;;;;7.30;55.32;100279.53;4993961;28;20200;-85
2022/03/20 07:31:33;;;;;;;28.20;20.55;;;;;;;7.26;56.64;100286.81;4995639;28;20318;-85
2022/03/20 07:33:59;;;;;;;29.40;22.02;;;;;;;7.22;58.47;100287.84;4996836;28;20622;-85
2022/03/20 07:36:26;;;;;;;28.92;21.10;;;;;;;7.41;58.68;100285.41;4995642;28;20225;-85
2022/03/20 07:38:54;;;;;;;32.63;23.60;;;;;;;7.22;61.98;100286.97;4997363;28;20187;-85
2022/03/20 07:41:21;;;;;;;32.72;21.73;;;;;;;7.38;61.98;100306.94;4994797;28;20187;-85
2022/03/20 07:43:49;;;;;;;30.10;21.95;;;;;;;7.41;62.33;100303.28;4994490;28;20199;-85
2022/03/20 07:46:15;;;;;;;29.52;22.35;;;;;;;7.55;62.48;100310.84;4994449;28;20188;-85
2022/03/20 07:48:43;;;;;;;34.00;22.33;;;;;;;7.60;62.23;100309.78;4994548;28;20199;-85
2022/03/20 07:51:10;;;;;;;32.05;23.13;;;;;;;7.61;62.65;100308.84;4994720;28;20287;-85
2022/03/20 07:53:36;;;;;;;34.25;23.85;;;;;;;7.56;62.90;100308.13;4994457;28;20207;-84
2022/03/20 07:56:03;;;;;;;32.25;22.90;;;;;;;7.68;62.63;100317.53;4994719;28;20210;-84
2022/03/20 07:58:30;;;;;;;31.10;22.98;;;;;;;7.57;63.86;100317.91;4993639;28;20668;-85
2022/03/20 08:00:56;;;;;;;30.45;22.30;;;;;;;7.78;62.17;100315.41;4994520;28;20232;-84
2022/03/20 08:03:23;;;;;;;29.50;22.08;;;;;;;7.90;61.48;100320.34;4994537;28;20188;-84
2022/03/20 08:05:51;;;;;;;30.10;21.33;;;;;;;7.97;61.73;100316.53;4994120;28;20192;-84
2022/03/20 08:08:17;;;;;;;32.33;22.88;;;;;;;8.00;62.24;100323.56;4994378;28;20560;-84
2022/03/20 08:10:44;;;;;;;33.65;22.80;;;;;;;7.94;63.26;100324.69;4994546;28;20187;-84
2022/03/20 08:13:12;;;;;;;33.25;24.42;;;;;;;7.88;63.81;100314.16;4994248;28;20203;-84
2022/03/20 08:15:40;;;;;;;32.83;22.63;;;;;;;7.93;63.88;100302.34;4993970;28;20225;-85
2022/03/20 08:18:07;;;;;;;31.83;23.35;;;;;;;8.06;63.63;100307.28;4994281;28;20246;-84
2022/03/20 08:20:34;;;;;;;32.92;21.92;;;;;;;8.10;63.47;100312.47;4994204;28;20188;-85
2022/03/20 08:23:03;;;;;;;33.38;23.25;;;;;;;8.12;63.33;100321.34;4994198;28;20674;-84
2022/03/20 08:25:31;;;;;;;32.33;23.13;;;;;;;8.07;63.81;100328.69;4993321;28;20203;-85
2022/03/20 08:27:58;;;;;;;31.52;24.17;;;;;;;8.25;63.88;100319.06;4993653;28;20188;-85
2022/03/20 08:30:24;;;;;;;28.08;21.70;;;;;;;8.26;63.42;100323.50;4993945;28;20556;-85
2022/03/20 08:32:53;;;;;;;31.83;24.17;;;;;;;8.40;63.35;100323.03;4994048;28;20230;-84
2022/03/20 08:35:19;;;;;;;30.67;22.23;;;;;;;8.52;63.02;100321.69;4993678;28;20628;-84
2022/03/20 08:37:48;;;;;;;34.97;23.15;;;;;;;8.62;63.09;100301.59;4993440;28;20196;-84
2022/03/20 08:40:19;;;;;;;30.73;22.70;;;;;;;9.03;61.48;100323.25;4993740;28;20278;-84
2022/03/20 08:42:47;;;;;;;30.83;22.60;;;;;;;9.55;59.80;100320.25;4994044;28;20201;-85
2022/03/20 08:45:15;;;;;;;35.08;26.73;;;;;;;9.91;58.30;100315.09;4994100;28;20190;-84
2022/03/20 08:47:42;;;;;;;30.70;23.98;;;;;;;10.02;56.98;100326.25;4993751;28;20596;-85
2022/03/20 08:50:10;;;;;;;29.40;22.20;;;;;;;9.95;57.78;100327.47;4993627;28;20218;-84
2022/03/20 08:52:36;;;;;;;32.70;21.88;;;;;;;10.22;56.90;100330.75;4993674;28;20694;-85
2022/03/20 08:55:09;;;;;;;32.17;24.20;;;;;;;10.02;57.31;100336.13;4993950;28;20244;-85
2022/03/20 08:57:39;;;;;;;30.08;22.70;;;;;;;9.94;57.95;100330.22;4993400;28;20195;-84
2022/03/20 09:00:07;;;;;;;29.38;23.27;;;;;;;10.02;58.07;100336.13;4993186;28;20210;-84
2022/03/20 09:02:34;;;;;;;29.55;22.15;;;;;;;9.86;58.85;100330.56;4993815;28;20193;-86
2022/03/20 09:05:00;;;;;;;29.38;22.42;;;;;;;9.91;58.85;100344.69;4993611;28;20208;-85
2022/03/20 09:07:27;;;;;;;31.35;22.23;;;;;;;10.10;58.54;100347.41;4995920;28;20291;-85
2022/03/20 09:09:54;;;;;;;28.33;22.17;;;;;;;10.40;57.30;100352.41;4994667;28;20344;-85
2022/03/20 09:12:20;;;;;;;30.63;23.08;;;;;;;10.53;56.80;100360.81;4994816;28;20281;-86
2022/03/20 09:14:48;;;;;;;27.40;22.23;;;;;;;10.91;55.98;100350.06;4993224;28;20202;-86
2022/03/20 09:19:59;;;;;;;31.98;23.63;;;;;;;11.14;56.45;100357.03;4992881;28;20559;-86
2022/03/20 09:22:26;;;;;;;29.40;21.98;;;;;;;11.12;57.06;100346.31;4992882;28;20606;-86
2022/03/20 09:24:53;;;;;;;28.15;22.55;;;;;;;11.06;58.02;100355.59;4992740;28;20191;-86
2022/03/20 09:27:19;;;;;;;26.23;21.70;;;;;;;10.98;59.32;100363.16;4992783;28;20570;-86
2022/03/20 09:29:47;;;;;;;31.90;21.35;;;;;;;10.62;61.76;100366.63;4992216;28;20196;-86
2022/03/20 09:32:14;;;;;;;28.02;21.60;;;;;;;10.76;61.92;100363.31;4992807;28;20195;-86
2022/03/20 09:34:40;;;;;;;30.08;23.10;;;;;;;10.82;62.61;100371.09;4992624;28;20234;-85
2022/03/20 09:37:07;;;;;;;29.02;21.23;;;;;;;10.68;64.42;100368.19;4992637;28;20282;-85
2022/03/20 09:39:33;;;;;;;31.23;22.65;;;;;;;10.59;67.71;100374.00;4992484;28;20184;-85
2022/03/20 09:42:03;;;;;;;34.50;22.88;;;;;;;10.67;70.97;100368.25;4992432;28;20596;-85
2022/03/20 09:44:29;;;;;;;32.40;23.65;;;;;;;10.71;73.53;100367.16;4992704;28;20262;-85
2022/03/20 09:46:57;;;;;;;29.08;21.90;;;;;;;10.63;74.56;100359.44;4992205;28;20195;-86
2022/03/20 09:49:25;;;;;;;34.42;21.48;;;;;;;10.45;77.51;100361.16;4992122;28;20213;-85
2022/03/20 09:51:52;;;;;;;29.38;21.08;;;;;;;10.41;80.22;100359.56;4992287;28;20542;-86
2022/03/20 09:54:19;;;;;;;35.55;25.05;;;;;;;10.37;82.74;100349.84;4992127;28;20661;-85
2022/03/20 09:56:51;;;;;;;31.10;21.33;;;;;;;10.48;82.68;100342.16;4992026;28;20206;-86
2022/03/20 09:59:17;;;;;;;29.73;21.90;;;;;;;10.38;84.15;100348.94;4992274;28;20709;-86
2022/03/20 10:01:44;;;;;;;29.30;21.98;;;;;;;10.55;84.29;100345.44;4992206;28;20769;-86
2022/03/20 10:04:14;;;;;;;30.15;22.08;;;;;;;10.61;84.11;100342.47;4992453;28;20205;-86
2022/03/20 10:06:42;;;;;;;27.67;21.40;;;;;;;10.90;83.77;100341.13;4992351;28;20634;-85
2022/03/20 10:09:12;;;;;;;28.23;20.73;;;;;;;11.09;84.23;100343.78;4992374;28;20643;-86
2022/03/20 10:11:41;;;;;;;29.27;19.33;;;;;;;11.13;83.07;100344.53;4992648;28;20216;-87
2022/03/20 10:14:09;;;;;;;29.35;20.55;;;;;;;11.75;81.45;100345.91;4992720;28;20213;-86
2022/03/20 10:16:37;;;;;;;23.33;18.33;;;;;;;12.36;77.40;100347.25;4992608;28;20337;-85
2022/03/20 10:19:27;;;;;;;25.08;18.75;;;;;;;12.79;73.02;100344.03;4992021;28;20618;-84
2022/03/20 10:21:56;;;;;;;24.05;18.25;;;;;;;12.94;72.09;100343.19;4992115;28;20188;-82
2022/03/20 10:24:25;;;;;;;27.58;17.40;;;;;;;13.30;70.73;100342.94;4991231;28;20219;-80
2022/03/20 10:27:03;;;;;;;24.08;17.58;;;;;;;13.14;71.36;100350.19;4991797;28;20649;-83
2022/03/20 10:29:31;;;;;;;24.65;17.52;;;;;;;13.46;69.77;100334.81;4991604;28;20188;-82
2022/03/20 10:32:01;;;;;;;25.60;18.73;;;;;;;13.45;70.49;100353.84;4991630;28;20546;-84
2022/03/20 10:34:29;;;;;;;24.25;17.30;;;;;;;13.84;68.47;100355.16;4991653;28;20219;-81
2022/03/20 10:36:56;;;;;;;22.88;16.77;;;;;;;13.88;67.75;100349.47;4991600;28;20224;-83
2022/03/20 10:39:27;;;;;;;27.52;16.08;;;;;;;13.54;69.14;100358.72;4991356;28;20547;-83
2022/03/20 10:41:56;;;;;;;24.17;15.80;;;;;;;13.39;70.16;100363.19;4991379;28;20629;-83
2022/03/20 10:44:25;;;;;;;22.38;16.90;;;;;;;13.09;72.41;100369.38;4990959;28;20401;-81
2022/03/20 10:46:57;;;;;;;22.10;16.75;;;;;;;13.30;71.92;100375.41;4991758;28;20201;-82
2022/03/20 10:49:24;;;;;;;23.25;15.45;;;;;;;13.49;70.65;100372.50;4994738;28;20270;-82
2022/03/20 10:52:04;;;;;;;22.85;17.17;;;;;;;13.69;69.43;100363.22;4994752;28;20209;-85
2022/03/20 10:54:42;;;;;;;21.60;15.20;;;;;;;13.94;66.93;100378.88;4995341;28;20232;-86
2022/03/20 10:57:09;;;;;;;19.92;15.50;;;;;;;13.71;68.21;100369.44;4995283;28;20190;-86
2022/03/20 10:59:37;;;;;;;18.95;14.73;;;;;;;13.68;68.13;100371.44;4995431;28;20201;-86
2022/03/20 11:02:05;;;;;;;26.13;13.90;;;;;;;13.94;66.96;100369.91;4994773;28;20623;-87
2022/03/20 11:04:33;;;;;;;19.23;13.77;;;;;;;14.00;65.33;100360.53;4995278;28;20639;-87
2022/03/20 11:07:06;;;;;;;24.02;14.88;;;;;;;14.18;65.20;100363.00;4995755;28;20867;-86
2022/03/20 11:09:34;;;;;;;18.08;14.32;;;;;;;14.28;64.35;100370.56;4995047;28;20695;-87
2022/03/20 11:12:06;;;;;;;21.95;14.82;;;;;;;14.18;63.21;100365.72;4994556;28;20190;-84
2022/03/20 11:14:34;;;;;;;22.58;15.60;;;;;;;14.06;64.79;100361.03;4994593;28;20207;-86
2022/03/20 11:17:02;;;;;;;18.58;13.57;;;;;;;14.48;62.66;100369.34;4994863;28;20288;-87
2022/03/20 11:19:30;;;;;;;20.25;14.70;;;;;;;14.26;62.57;100378.78;4987704;28;20192;-87
2022/03/20 11:22:02;;;;;;;21.55;15.27;;;;;;;13.85;64.96;100379.44;4995146;28;20205;-85
2022/03/20 11:24:29;;;;;;;20.10;14.02;;;;;;;14.15;64.13;100368.59;4994918;28;20214;-86
2022/03/20 11:27:00;;;;;;;19.95;14.25;;;;;;;14.10;64.37;100372.56;4994780;28;20198;-86
2022/03/20 11:29:29;;;;;;;22.27;15.10;;;;;;;13.77;65.35;100366.38;4994663;28;20197;-87
2022/03/20 11:31:58;;;;;;;22.40;15.95;;;;;;;13.54;67.56;100375.84;4993824;28;20199;-87
2022/03/20 11:34:26;;;;;;;19.75;16.50;;;;;;;13.90;66.17;100365.63;4994210;28;20697;-85
2022/03/20 11:37:04;;;;;;;20.85;15.18;;;;;;;14.16;64.73;100367.63;4994312;28;20283;-85
2022/03/20 11:39:34;;;;;;;24.27;14.55;;;;;;;14.49;63.50;100379.19;4993918;28;20287;-87
2022/03/20 11:42:25;;;;;;;21.08;14.85;;;;;;;14.82;59.97;100378.97;4994423;28;20293;-86
2022/03/20 11:45:11;;;;;;;20.98;15.18;;;;;;;14.91;58.01;100380.22;4993712;28;20284;-86
2022/03/20 11:47:40;;;;;;;23.95;15.70;;;;;;;15.16;56.10;100390.38;4993647;28;20198;-85
2022/03/20 11:50:09;;;;;;;22.20;15.43;;;;;;;15.41;54.59;100393.22;4993382;28;20657;-87
2022/03/20 11:52:49;;;;;;;22.70;15.63;;;;;;;15.47;54.10;100380.19;4993293;28;20188;-87
2022/03/20 11:55:29;;;;;;;27.23;16.35;;;;;;;15.17;54.69;100381.25;4993286;28;20214;-87